Skip to main content.

Nearby METAR Reports

 

KJYR - York, Nebraska, USA
Distance from station: NW 27mi, 43km
Updated: Tue, 13-Apr-2021 1:15pm CDT
Clear
Clear
 Wind from WNW
Wind: WNW 18 mph , 30 km/h, Gust: 25 mph , 41 km/h
Temperature: 50°F , 10°C
Wind Chill: 44°F , 7°C
Dew Point: 27°F , -3°C
Humidity: 40%
Barometer: 30.23 inHg , 1023.7 hPa
Clouds: Clear
Visibility: 10 miles , 16 km
2021/04/13 18:15 KJYR 131815Z AUTO 29016G22KT 10SM CLR 10/M03 A3023 RMK AO2
KLNK - Lincoln, Nebraska, USA
Distance from station: ENE 27mi, 44km
Updated: Tue, 13-Apr-2021 12:54pm CDT
Clear
Clear
 Wind from W
Wind: W 12 mph , 19 km/h, Gust: 22 mph , 35 km/h
Temperature: 52°F , 11°C
Dew Point: 25°F , -4°C
Humidity: 35%
Barometer: 30.25 inHg , 1024.4 hPa
Clouds: Clear
Visibility: 10 miles , 16 km
2021/04/13 17:54 KLNK 131754Z 27010G19KT 10SM CLR 11/M04 A3025 RMK AO2 SLP248 T01061044 10111 20017 58008
 
KBIE - Beatrice Municip, Nebraska, USA
Distance from station: SE 36mi, 58km
Updated: Tue, 13-Apr-2021 1:15pm CDT
Clear
Clear
 Wind from WNW
Wind: WNW 16 mph , 26 km/h, Gust: 25 mph , 41 km/h
Temperature: 52°F , 11°C
Dew Point: 28°F , -2°C
Humidity: 41%
Barometer: 30.24 inHg , 1024 hPa
Clouds: Clear
Visibility: 10 miles , 16 km
2021/04/13 18:15 KBIE 131815Z AUTO 29014G22KT 10SM CLR 11/M02 A3024 RMK AO2 T01141021
KHJH - Hebron Muni, Nebraska, USA
Distance from station: SSW 40mi, 64km
Updated: Tue, 13-Apr-2021 1:15pm CDT
Clear
Clear
 Wind from WNW
Wind: WNW 14 mph , 22 km/h, Gust: 21 mph , 33 km/h
Temperature: 50°F , 10°C
Wind Chill: 45°F , 7°C
Dew Point: 27°F , -3°C
Humidity: 40%
Barometer: 30.26 inHg , 1024.7 hPa
Clouds: Clear
Visibility: 10 miles , 16 km
2021/04/13 18:15 KHJH 131815Z AUTO 30012G18KT 10SM CLR 10/M03 A3026 RMK AO2 T01041035
 
KAUH - Aurora, Nebraska, USA
Distance from station: WNW 44mi, 70km
Updated: Tue, 13-Apr-2021 1:35pm CDT
Clear
Clear
 Wind from WNW
Wind: WNW 14 mph , 22 km/h, Gust: 24 mph , 39 km/h
Temperature: 50°F , 10°C
Wind Chill: 45°F , 7°C
Dew Point: 23°F , -5°C
Humidity: 35%
Barometer: 30.23 inHg , 1023.7 hPa
Clouds: Clear
Visibility: 10 miles , 16 km
2021/04/13 18:35 KAUH 131835Z AUTO 30012G21KT 10SM CLR 10/M05 A3023 RMK AO2 T01031047
KAHQ - Wahoo, Nebraska, USA
Distance from station: NE 51mi, 82km
Updated: Tue, 13-Apr-2021 1:35pm CDT
Clear
Clear
 Wind from W
Wind: W 16 mph , 26 km/h, Gust: 28 mph , 44 km/h
Temperature: 52°F , 11°C
Dew Point: 25°F , -4°C
Humidity: 35%
Barometer: 30.21 inHg , 1023 hPa
Clouds: Clear
Visibility: 10 miles , 16 km
2021/04/13 18:35 KAHQ 131835Z AUTO 28014G24KT 10SM CLR 11/M04 A3021 RMK AO2 T01121037
 
KOLU - Columbus Muni, Nebraska, USA
Distance from station: N 55mi, 88km
Updated: Tue, 13-Apr-2021 12:56pm CDT
Clear
Clear
 Wind from W
Wind: W 21 mph , 33 km/h, Gust: 29 mph , 46 km/h
Temperature: 48°F , 9°C
Wind Chill: 41°F , 5°C
Dew Point: 25°F , -4°C
Humidity: 40%
Barometer: 30.24 inHg , 1024 hPa
Clouds: Clear
Visibility: 10 miles , 16 km
2021/04/13 17:56 KOLU 131756Z AUTO 28018G25KT 10SM CLR 09/M04 A3024 RMK AO2 PK WND 30028/1746 SLP250 T00891044 10094 20011 58004
KGRI - Grand Island, Nebraska, USA
Distance from station: WNW 61mi, 99km
Updated: Tue, 13-Apr-2021 12:53pm CDT
Clear
Clear
 Wind from W
Wind: W 17 mph , 28 km/h, Gust: 29 mph , 46 km/h
Temperature: 50°F , 10°C
Wind Chill: 44°F , 7°C
Dew Point: 23°F , -5°C
Humidity: 35%
Barometer: 30.25 inHg , 1024.4 hPa
Clouds: Clear
Visibility: 10 miles , 16 km
2021/04/13 17:53 KGRI 131753Z 28015G25KT 10SM CLR 10/M05 A3025 RMK AO2 PK WND 29026/1713 SLP259 T01001050 10100 21017 58006
 
KHSI - Hastings, Nebraska, USA
Distance from station: W 64mi, 103km
Updated: Tue, 13-Apr-2021 12:53pm CDT
Clear
Clear
 Wind from W
Wind: W 14 mph , 22 km/h, Gust: 25 mph , 41 km/h
Temperature: 48°F , 9°C
Wind Chill: 42°F , 6°C
Dew Point: 25°F , -4°C
Humidity: 40%
Barometer: 30.26 inHg , 1024.7 hPa
Clouds: Clear
Visibility: 10 miles , 16 km
2021/04/13 17:53 KHSI 131753Z AUTO 28012G22KT 10SM CLR 09/M04 A3026 RMK AO2 SLP258 I6000 T00891044 10094 21017 58004
KFET - Fremont Muni Arp, Nebraska, USA
Distance from station: NNE 66mi, 106km
Updated: Tue, 13-Apr-2021 1:15pm CDT
Clear
Clear
 Wind from WNW
Wind: WNW 17 mph , 28 km/h, Gust: 26 mph , 43 km/h
Temperature: 50°F , 10°C
Wind Chill: 44°F , 7°C
Dew Point: 27°F , -3°C
Humidity: 40%
Barometer: 30.22 inHg , 1023.4 hPa
Clouds: Clear
Visibility: 10 miles , 16 km
2021/04/13 18:15 KFET 131815Z AUTO 29015G23KT 10SM CLR 10/M03 A3022 RMK AO2 T01011027
 
KMLE - Omaha/Millard, Nebraska, USA
Distance from station: NE 69mi, 110km
Updated: Tue, 13-Apr-2021 1:15pm CDT
Clear
Clear
 Wind from WNW
Wind: WNW 18 mph , 30 km/h, Gust: 24 mph , 39 km/h
Temperature: 50°F , 10°C
Wind Chill: 44°F , 7°C
Dew Point: 25°F , -4°C
Humidity: 37%
Barometer: 30.22 inHg , 1023.4 hPa
Clouds: Clear
Visibility: 10 miles , 16 km
2021/04/13 18:15 KMLE 131815Z AUTO 29016G21KT 10SM CLR 10/M04 A3022 RMK AO2 T01001036
KPMV - Plattsmouth Muni, Nebraska, USA
Distance from station: ENE 71mi, 114km
Updated: Tue, 13-Apr-2021 1:15pm CDT
Clear
Clear
 Wind from WNW
Wind: WNW 16 mph , 26 km/h, Gust: 22 mph , 35 km/h
Temperature: 52°F , 11°C
Dew Point: 25°F , -4°C
Humidity: 35%
Barometer: 30.22 inHg , 1023.4 hPa
Clouds: Clear
Visibility: 10 miles , 16 km
2021/04/13 18:15 KPMV 131815Z AUTO 29014G19KT 10SM CLR 11/M04 A3022 RMK AO2 T01051038
 
KAFK - Nebraska City, Nebraska, USA
Distance from station: E 72mi, 116km
Updated: Tue, 13-Apr-2021 1:35pm CDT
Clear
Clear
 Wind from WNW
Wind: WNW 13 mph , 20 km/h, Gust: 25 mph , 41 km/h
Temperature: 52°F , 11°C
Dew Point: 18°F , -8°C
Humidity: 26%
Barometer: 30.23 inHg , 1023.7 hPa
Clouds: Clear
Visibility: 10 miles , 16 km
2021/04/13 18:35 KAFK 131835Z AUTO 29011G22KT 10SM CLR 11/M08 A3023 RMK AO2 T01061076
KOFF - Offutt Afb/Belle, Nebraska, USA
Distance from station: ENE 75mi, 121km
Updated: Tue, 13-Apr-2021 12:56pm CDT
Few Clouds
Few Clouds
 Wind from WNW
Wind: WNW 16 mph , 26 km/h, Gust: 24 mph , 39 km/h
Clouds: Few Clouds
Visibility: 10 miles , 16 km
Cloud details: Few Clouds 5000 ft
2021/04/13 17:56 KOFF 131756Z AUTO 30014G21KT 10SM FEW050 M M RMK AO2 SLPNO RVRNO TSNO $
 
KBTA - Blair Muni, Nebraska, USA
Distance from station: NE 78mi, 125km
Updated: Tue, 13-Apr-2021 1:35pm CDT
Partly Cloudy
Partly Cloudy
 Wind from W
Wind: W 17 mph , 28 km/h, Gust: 25 mph , 41 km/h
Temperature: 48°F , 9°C
Wind Chill: 42°F , 6°C
Dew Point: 23°F , -5°C
Humidity: 37%
Barometer: 30.20 inHg , 1022.7 hPa
Clouds: Partly Cloudy
Visibility: 10 miles , 16 km
Cloud details: Partly Cloudy 5500 ft
2021/04/13 18:35 KBTA 131835Z AUTO 27015G22KT 10SM SCT055 09/M05 A3020 RMK AO2 T00871047
KCNK - Concordia, Kansas, USA
Distance from station: SSW 80mi, 129km
Updated: Tue, 13-Apr-2021 12:55pm CDT
Clear
Clear
 Wind from NW
Wind: NW 13 mph , 20 km/h
Temperature: 54°F , 12°C
Dew Point: 25°F , -4°C
Humidity: 33%
Barometer: 30.27 inHg , 1025.1 hPa
Clouds: Clear
Visibility: 10 miles , 16 km
2021/04/13 17:55 KCNK 131755Z AUTO 31011KT 10SM CLR 12/M04 A3027 RMK AO2 SLP252 T01171039 10117 20017 58010
 
KOMA - Omaha/Eppley, Nebraska, USA
Distance from station: NE 82mi, 133km
Updated: Tue, 13-Apr-2021 12:52pm CDT
Partly Cloudy
Partly Cloudy
 Wind from WNW
Wind: WNW 21 mph , 33 km/h, Gust: 31 mph , 50 km/h
Temperature: 50°F , 10°C
Wind Chill: 43°F , 6°C
Dew Point: 25°F , -4°C
Humidity: 37%
Barometer: 30.21 inHg , 1023 hPa
Clouds: Partly Cloudy
Visibility: 10 miles , 16 km
Cloud details: Partly Cloudy 5000 ft
Partly Cloudy 25000 ft
2021/04/13 17:52 KOMA 131752Z 29018G27KT 10SM SCT050 SCT250 10/M04 A3021 RMK AO2 PK WND 31027/1746 SLP236 T01001039 10106 20022 58004
KBVN - Albion Muni, Nebraska, USA
Distance from station: NNW 86mi, 138km
Updated: Tue, 13-Apr-2021 1:35pm CDT
Partly Cloudy
Partly Cloudy
 Wind from WNW
Wind: WNW 22 mph , 35 km/h, Gust: 35 mph , 56 km/h
Temperature: 48°F , 9°C
Wind Chill: 41°F , 5°C
Dew Point: 25°F , -4°C
Humidity: 40%
Barometer: 30.21 inHg , 1023 hPa
Clouds: Partly Cloudy
Visibility: 10 miles , 16 km
Cloud details: Partly Cloudy 5000 ft
2021/04/13 18:35 KBVN 131835Z AUTO 30019G30KT 10SM SCT050 09/M04 A3021 RMK AO2 T00871044
 
KCBF - Council Bluffs, Iowa, USA
Distance from station: ENE 87mi, 139km
Updated: Tue, 13-Apr-2021 1:35pm CDT
Clear
Clear
 Wind from WNW
Wind: WNW 18 mph , 30 km/h, Gust: 25 mph , 41 km/h
Temperature: 50°F , 10°C
Wind Chill: 44°F , 7°C
Dew Point: 21°F , -6°C
Humidity: 32%
Barometer: 30.18 inHg , 1022 hPa
Clouds: Clear
Visibility: 10 miles , 16 km
2021/04/13 18:35 KCBF 131835Z AUTO 29016G22KT 10SM CLR 10/M06 A3018 RMK AO2
KOFK - Norfolk, Nebraska, USA
Distance from station: N 92mi, 148km
Updated: Tue, 13-Apr-2021 12:56pm CDT
Few Clouds
Few Clouds
 Wind from NW
Wind: NW 18 mph , 30 km/h, Gust: 33 mph , 54 km/h
Temperature: 46°F , 8°C
Wind Chill: 39°F , 4°C
Dew Point: 23°F , -5°C
Humidity: 40%
Barometer: 30.21 inHg , 1023 hPa
Clouds: Few Clouds
Visibility: 10 miles , 16 km
Cloud details: Few Clouds 4400 ft
2021/04/13 17:56 KOFK 131756Z AUTO 31016G29KT 10SM FEW044 08/M05 A3021 RMK AO2 PK WND 30033/1719 SLP239 T00781050 10078 20017 50002

Metar display script from Saratoga-Weather.org